Time;durP1;ratioP1;P1;durP2;ratioP2;P2;SDS_P1;SDS_P2;PMS_P1;PMS_P2;Temp;Humidity;BMP_temperature;BMP_pressure;BME280_temperature;BME280_humidity;BME280_pressure;Samples;Min_cycle;Max_cycle;Signal;HPM_P1;HPM_P2
2023/06/17 00:05:15;;;;;;;;;;;;;;;23.67;50.11;99856.44;42056455;28;20371;-83
2023/06/17 00:25:16;;;;;;;;;;;;;;;23.65;50.30;99835.44;42064318;28;19937;-81
2023/06/17 00:45:16;;;;;;;;;;;;;;;23.62;50.05;99817.25;42063730;28;19924;-83
2023/06/17 01:05:17;;;;;;;;;;;;;;;23.60;50.24;99816.56;42050358;28;20269;-81
2023/06/17 01:25:18;;;;;;;;;;;;;;;23.59;50.03;99822.00;42076161;28;19924;-81
2023/06/17 01:45:19;;;;;;;;;;;;;;;23.56;49.93;99823.13;42071822;28;19928;-84
2023/06/17 02:05:19;;;;;;;;;;;;;;;23.52;50.04;99815.63;42071862;28;20007;-82
2023/06/17 02:25:20;;;;;;;;;;;;;;;23.53;49.33;99812.84;42072627;28;19983;-82
2023/06/17 02:45:20;;;;;;;;;;;;;;;23.49;49.28;99824.69;42059277;28;19932;-81
2023/06/17 03:05:23;;;;;;;;;;;;;;;23.48;49.16;99831.78;42069212;28;19935;-80
2023/06/17 03:25:24;;;;;;;;;;;;;;;23.44;49.08;99833.06;42062991;28;19940;-82
2023/06/17 03:45:24;;;;;;;;;;;;;;;23.44;48.73;99856.03;42057809;28;19942;-82
2023/06/17 04:05:33;;;;;;;;;;;;;;;23.42;48.57;99858.78;42077187;28;20398;-80
2023/06/17 04:25:36;;;;;;;;;;;;;;;23.39;48.55;99869.66;42057292;28;19924;-84
2023/06/17 04:45:39;;;;;;;;;;;;;;;23.41;48.74;99873.00;42039924;28;19947;-81
2023/06/17 05:05:40;;;;;;;;;;;;;;;23.46;48.06;99870.75;42018743;28;19932;-84
2023/06/17 05:25:40;;;;;;;;;;;;;;;23.49;48.00;99875.72;42056125;28;19932;-88
2023/06/17 05:45:41;;;;;;;;;;;;;;;23.52;47.97;99882.53;42063533;28;19924;-86
2023/06/17 06:05:41;;;;;;;;;;;;;;;23.62;49.71;99907.09;42065912;28;19997;-82
2023/06/17 06:25:41;;;;;;;;;;;;;;;23.68;50.13;99905.69;42072673;28;20012;-80
2023/06/17 06:45:41;;;;;;;;;;;;;;;23.75;50.09;99917.31;42070180;28;19928;-76
2023/06/17 07:05:48;;;;;;;;;;;;;;;23.77;49.59;99927.78;42003979;28;19931;-79
2023/06/17 07:25:48;;;;;;;;;;;;;;;23.78;49.48;99917.03;42031461;28;20015;-73
2023/06/17 07:45:49;;;;;;;;;;;;;;;23.81;49.23;99919.41;42025733;28;19928;-78
2023/06/17 08:05:50;;;;;;;;;;;;;;;23.85;49.90;99922.56;42088927;28;19977;-85
2023/06/17 08:25:50;;;;;;;;;;;;;;;23.85;48.70;99917.28;42056780;28;20492;-77
2023/06/17 08:45:53;;;;;;;;;;;;;;;23.88;48.99;99916.97;42046343;28;19963;-76
2023/06/17 09:05:53;;;;;;;;;;;;;;;23.91;49.18;99916.69;42040551;28;19924;-83
2023/06/17 09:26:02;;;;;;;;;;;;;;;23.96;49.67;99925.06;42016204;28;19924;-81
2023/06/17 09:46:04;;;;;;;;;;;;;;;24.00;49.61;99917.66;42055417;28;19928;-80
2023/06/17 10:06:07;;;;;;;;;;;;;;;24.04;49.64;99923.47;42037422;28;19925;-84
2023/06/17 10:26:08;;;;;;;;;;;;;;;23.83;43.91;99924.53;42077001;28;19933;-80
2023/06/17 10:46:08;;;;;;;;;;;;;;;23.87;44.17;99920.59;42050858;28;19924;-77
2023/06/17 11:06:10;;;;;;;;;;;;;;;24.04;43.31;99918.19;42050691;28;19924;-82
2023/06/17 11:26:10;;;;;;;;;;;;;;;24.17;43.13;99909.88;42063312;28;19982;-80
2023/06/17 11:46:10;;;;;;;;;;;;;;;24.33;41.94;99895.97;42045650;28;20915;-78
2023/06/17 12:06:18;;;;;;;;;;;;;;;24.44;41.43;99885.16;42035440;28;19933;-81
2023/06/17 12:26:19;;;;;;;;;;;;;;;24.42;41.35;99874.72;42049686;28;19928;-79
2023/06/17 12:46:19;;;;;;;;;;;;;;;24.52;41.17;99871.16;42059586;28;20814;-84
2023/06/17 13:06:19;;;;;;;;;;;;;;;24.63;40.31;99884.13;42048292;28;19954;-81
2023/06/17 13:26:22;;;;;;;;;;;;;;;24.66;38.86;99890.97;42019328;28;19928;-81
2023/06/17 13:46:22;;;;;;;;;;;;;;;24.73;41.64;99873.47;42004020;28;19928;-80
2023/06/17 14:06:22;;;;;;;;;;;;;;;24.83;40.49;99878.69;42010618;28;19951;-80
2023/06/17 14:26:22;;;;;;;;;;;;;;;25.05;40.92;99872.06;42014520;28;19950;-80
2023/06/17 14:46:23;;;;;;;;;;;;;;;24.98;40.33;99863.06;42035009;28;19936;-76
2023/06/17 15:06:23;;;;;;;;;;;;;;;25.05;42.03;99850.88;41996936;28;19932;-74
2023/06/17 15:26:24;;;;;;;;;;;;;;;25.12;40.70;99859.84;41991120;28;20018;-75
2023/06/17 15:46:24;;;;;;;;;;;;;;;25.07;41.47;99856.81;41962353;28;19950;-75
2023/06/17 16:06:26;;;;;;;;;;;;;;;25.24;38.59;99865.69;41970661;28;20361;-80
2023/06/17 16:26:28;;;;;;;;;;;;;;;25.25;39.30;99876.13;42042527;28;19924;-77
2023/06/17 16:46:28;;;;;;;;;;;;;;;25.28;37.56;99903.28;42017222;28;19939;-79
2023/06/17 17:06:29;;;;;;;;;;;;;;;25.24;37.39;99926.63;42022872;28;20298;-78
2023/06/17 17:26:29;;;;;;;;;;;;;;;25.12;38.63;99943.78;42020749;28;19939;-81
2023/06/17 17:46:30;;;;;;;;;;;;;;;24.98;38.88;99942.53;42019954;28;19974;-76
2023/06/17 18:06:30;;;;;;;;;;;;;;;24.86;38.84;99971.88;42050274;28;20479;-76
2023/06/17 18:26:30;;;;;;;;;;;;;;;24.66;38.77;100004.81;42000589;28;20030;-76
2023/06/17 18:46:31;;;;;;;;;;;;;;;24.46;38.30;100020.78;42017789;28;20380;-78
2023/06/17 19:06:31;;;;;;;;;;;;;;;24.20;37.54;100033.91;42035968;28;20396;-80
2023/06/17 19:26:32;;;;;;;;;;;;;;;23.98;38.02;100049.19;41972682;28;19948;-79
2023/06/17 19:46:32;;;;;;;;;;;;;;;23.85;38.34;100067.16;42055818;28;20425;-82
2023/06/17 20:06:32;;;;;;;;;;;;;;;23.66;39.33;100071.53;42060795;28;19922;-83
2023/06/17 20:26:32;;;;;;;;;;;;;;;23.56;39.90;100060.97;42079084;28;19924;-82
2023/06/17 20:46:33;;;;;;;;;;;;;;;23.37;40.89;100061.84;42078462;28;19924;-80
2023/06/17 21:06:33;;;;;;;;;;;;;;;23.29;41.12;100065.19;42047611;28;19968;-82
2023/06/17 21:26:33;;;;;;;;;;;;;;;23.16;41.61;100064.63;42086333;28;20355;-81
2023/06/17 21:46:34;;;;;;;;;;;;;;;23.08;42.24;100067.94;42069646;28;19932;-80
2023/06/17 22:06:34;;;;;;;;;;;;;;;23.04;42.47;100087.69;42052706;28;19943;-84
2023/06/17 22:26:34;;;;;;;;;;;;;;;22.86;42.87;100095.44;42020300;28;19964;-82
2023/06/17 22:46:35;;;;;;;;;;;;;;;22.83;42.46;100103.66;42000111;28;19933;-83
2023/06/17 23:06:35;;;;;;;;;;;;;;;22.62;43.09;100093.16;42022866;28;19932;-83
2023/06/17 23:26:36;;;;;;;;;;;;;;;22.44;43.27;100100.91;42028782;28;20003;-81
2023/06/17 23:46:38;;;;;;;;;;;;;;;22.31;43.91;100098.47;42036053;28;19928;-82
